Time;durP1;ratioP1;P1;durP2;ratioP2;P2;SDS_P1;SDS_P2;PMS_P1;PMS_P2;Temp;Humidity;BMP_temperature;BMP_pressure;BME280_temperature;BME280_humidity;BME280_pressure;Samples;Min_cycle;Max_cycle;Signal;HPM_P1;HPM_P2
2022/01/15 00:00:06;;;;;;;72.88;66.03;;;;;;;-0.34;100.00;101284.97;5068609;28;20051;-80
2022/01/15 00:02:35;;;;;;;64.53;58.88;;;;;;;-0.50;100.00;101293.19;5060215;28;20119;-80
2022/01/15 00:05:01;;;;;;;66.38;61.05;;;;;;;-0.68;100.00;101305.88;5067736;28;20460;-84
2022/01/15 00:07:28;;;;;;;67.38;61.28;;;;;;;-0.73;100.00;101311.47;5066235;28;20448;-84
2022/01/15 00:09:55;;;;;;;66.60;59.83;;;;;;;-0.96;100.00;101315.81;5062580;28;20117;-83
2022/01/15 00:12:22;;;;;;;65.70;59.05;;;;;;;-1.14;100.00;101316.38;5061946;28;20068;-80
2022/01/15 00:14:50;;;;;;;57.90;52.58;;;;;;;-1.42;100.00;101321.06;5058650;28;20045;-82
2022/01/15 00:17:21;;;;;;;57.58;51.92;;;;;;;-1.30;100.00;101332.31;5062840;28;20143;-79
2022/01/15 00:19:50;;;;;;;59.75;53.95;;;;;;;-1.45;100.00;101327.31;5065849;28;20053;-84
2022/01/15 00:22:19;;;;;;;63.47;57.63;;;;;;;-1.49;100.00;101323.25;5060469;28;20057;-83
2022/01/15 00:24:47;;;;;;;60.97;55.13;;;;;;;-1.52;100.00;101327.88;5063565;28;20057;-80
2022/01/15 00:27:14;;;;;;;63.35;57.00;;;;;;;-1.90;100.00;101334.94;5065753;28;20060;-80
2022/01/15 00:29:40;;;;;;;65.00;58.55;;;;;;;-1.72;100.00;101355.38;5067541;28;20089;-80
2022/01/15 00:32:08;;;;;;;65.35;58.92;;;;;;;-1.42;100.00;101354.94;5054781;28;20045;-82
2022/01/15 00:34:36;;;;;;;68.10;61.15;;;;;;;-1.80;100.00;101355.09;5064277;28;20061;-82
2022/01/15 00:37:04;;;;;;;70.63;63.65;;;;;;;-1.69;100.00;101347.34;5060917;28;20126;-82
2022/01/15 00:39:31;;;;;;;66.50;60.13;;;;;;;-1.96;100.00;101332.75;5057799;28;20122;-81
2022/01/15 00:41:58;;;;;;;63.92;57.33;;;;;;;-2.15;100.00;101329.78;5073170;28;20048;-83
2022/01/15 00:44:24;;;;;;;61.78;55.50;;;;;;;-2.05;100.00;101330.81;5062107;28;20420;-82
2022/01/15 00:46:51;;;;;;;68.00;60.70;;;;;;;-1.96;100.00;101343.16;5055763;28;20456;-81
2022/01/15 00:49:18;;;;;;;90.40;72.40;;;;;;;-1.74;100.00;101354.66;5060904;28;20048;-80
2022/01/15 00:51:45;;;;;;;107.68;81.93;;;;;;;-1.64;100.00;101356.47;5052946;28;20444;-82
2022/01/15 00:54:14;;;;;;;88.32;72.97;;;;;;;-1.88;100.00;101360.84;5061845;28;20053;-84
2022/01/15 00:56:41;;;;;;;85.70;71.13;;;;;;;-1.85;100.00;101364.09;5072818;28;20110;-83
2022/01/15 00:59:08;;;;;;;86.38;70.75;;;;;;;-1.69;100.00;101373.41;5059856;28;20110;-82
2022/01/15 01:01:34;;;;;;;83.90;70.13;;;;;;;-2.19;100.00;101375.19;5061798;28;20417;-81
2022/01/15 01:04:01;;;;;;;78.68;70.38;;;;;;;-2.20;100.00;101378.75;5060934;28;20055;-83
2022/01/15 01:06:28;;;;;;;138.68;87.40;;;;;;;-2.16;100.00;101365.41;5061781;28;20056;-82
2022/01/15 01:08:55;;;;;;;80.75;64.13;;;;;;;-2.36;100.00;101379.81;5065872;28;20118;-84
2022/01/15 01:11:31;;;;;;;83.13;68.13;;;;;;;-2.36;100.00;101389.38;5064883;28;20420;-80
2022/01/15 01:24:53;;;;;;;71.35;63.50;;;;;;;-2.41;100.00;101383.66;5064756;28;20049;-83
2022/01/15 01:27:26;;;;;;;72.82;63.95;;;;;;;-2.45;100.00;101382.19;5055440;28;20550;-84
2022/01/15 01:30:08;;;;;;;74.53;61.97;;;;;;;-2.65;100.00;101388.78;5062991;28;20118;-80
2022/01/15 01:32:46;;;;;;;91.10;73.82;;;;;;;-2.61;100.00;101375.44;5043264;28;20068;-80
2022/01/15 01:35:17;;;;;;;85.70;70.80;;;;;;;-2.70;100.00;101370.84;5063400;28;20045;-80
2022/01/15 01:37:48;;;;;;;85.90;63.60;;;;;;;-2.86;100.00;101384.06;5063557;28;20441;-81
2022/01/15 01:40:20;;;;;;;157.13;84.47;;;;;;;-2.70;100.00;101394.28;5054792;28;20060;-79
2022/01/15 01:42:59;;;;;;;187.23;94.88;;;;;;;-2.61;100.00;101374.59;5064920;28;20061;-79
2022/01/15 01:45:26;;;;;;;172.77;88.85;;;;;;;-2.83;100.00;101386.47;5057055;28;20060;-83
2022/01/15 01:47:53;;;;;;;117.50;74.75;;;;;;;-2.68;100.00;101389.81;5054306;28;20092;-79
2022/01/15 01:50:22;;;;;;;84.43;64.88;;;;;;;-2.80;100.00;101391.47;5061409;28;20045;-80
2022/01/15 01:52:52;;;;;;;81.63;70.78;;;;;;;-3.08;100.00;101402.88;5064843;28;20477;-80
2022/01/15 01:55:22;;;;;;;78.78;63.85;;;;;;;-3.04;100.00;101406.91;5063014;28;20118;-80
2022/01/15 01:57:51;;;;;;;109.85;80.03;;;;;;;-3.01;100.00;101404.13;5060635;28;20124;-79
2022/01/15 02:00:20;;;;;;;1199.90;404.55;;;;;;;-2.82;100.00;101400.28;5063877;28;20056;-80
2022/01/15 02:02:48;;;;;;;263.17;123.88;;;;;;;-2.97;100.00;101394.34;5061160;28;20045;-84
2022/01/15 02:05:14;;;;;;;313.30;165.93;;;;;;;-3.09;100.00;101387.34;5065059;28;20091;-80
2022/01/15 02:07:43;;;;;;;117.63;83.57;;;;;;;-3.30;100.00;101394.78;5066000;28;20060;-79
2022/01/15 02:10:12;;;;;;;141.30;93.63;;;;;;;-3.19;100.00;101397.53;5062185;28;20110;-81
2022/01/15 02:12:40;;;;;;;177.23;106.88;;;;;;;-3.07;100.00;101401.94;5063207;28;20598;-82
2022/01/15 02:15:12;;;;;;;224.65;111.80;;;;;;;-3.13;100.00;101397.13;5061060;28;20447;-83
2022/01/15 02:17:39;;;;;;;150.50;86.93;;;;;;;-3.26;100.00;101404.06;5065347;28;20052;-84
2022/01/15 02:20:33;;;;;;;140.82;83.18;;;;;;;-3.06;100.00;101395.78;5065803;28;20048;-83
2022/01/15 02:25:48;;;;;;;204.13;105.72;;;;;;;-3.11;100.00;101407.44;5058015;28;20051;-83
2022/01/15 02:28:17;;;;;;;149.27;89.10;;;;;;;-3.12;100.00;101413.53;5062942;28;20056;-82
2022/01/15 02:30:44;;;;;;;143.52;78.05;;;;;;;-3.01;100.00;101401.50;5058552;28;20060;-83
2022/01/15 02:33:11;;;;;;;82.50;60.85;;;;;;;-2.60;100.00;101410.09;5069012;28;20114;-79
2022/01/15 02:35:39;;;;;;;96.68;68.75;;;;;;;-2.61;100.00;101408.41;5064148;28;20052;-79
2022/01/15 02:38:07;;;;;;;100.35;74.85;;;;;;;-2.65;100.00;101415.59;5058679;28;20482;-79
2022/01/15 02:40:35;;;;;;;92.70;72.03;;;;;;;-2.72;100.00;101424.75;5065322;28;20052;-83
2022/01/15 02:43:04;;;;;;;85.13;71.20;;;;;;;-2.64;100.00;101427.66;5062217;28;20377;-82
2022/01/15 02:45:32;;;;;;;77.93;69.30;;;;;;;-2.42;100.00;101423.59;5050908;28;20072;-80
2022/01/15 02:48:02;;;;;;;78.78;69.97;;;;;;;-2.20;100.00;101412.59;5056589;28;20401;-82
2022/01/15 02:50:30;;;;;;;71.00;63.30;;;;;;;-2.56;100.00;101428.00;5066490;28;20110;-80
2022/01/15 02:53:01;;;;;;;73.15;62.67;;;;;;;-2.39;100.00;101426.00;5061514;28;20500;-83
2022/01/15 02:55:28;;;;;;;72.47;63.33;;;;;;;-2.51;100.00;101427.69;5060249;28;20136;-81
2022/01/15 02:57:54;;;;;;;78.10;65.28;;;;;;;-2.55;100.00;101432.25;5059373;28;20060;-80
2022/01/15 03:05:28;;;;;;;73.93;65.88;;;;;;;-2.45;100.00;101440.28;5091919;28;20044;-84
2022/01/15 03:07:54;;;;;;;79.32;69.22;;;;;;;-2.44;100.00;101452.34;5093602;28;20396;-83
2022/01/15 03:10:22;;;;;;;98.93;82.35;;;;;;;-2.37;100.00;101453.59;5093036;28;20048;-80
2022/01/15 03:12:49;;;;;;;100.07;80.28;;;;;;;-2.25;100.00;101448.50;5093763;28;20048;-80
2022/01/15 03:15:19;;;;;;;235.95;102.78;;;;;;;-2.37;100.00;101453.59;5093200;28;20559;-80
2022/01/15 03:17:46;;;;;;;335.85;129.23;;;;;;;-2.31;100.00;101450.56;5087957;28;20078;-83
2022/01/15 03:20:15;;;;;;;179.48;94.10;;;;;;;-2.29;100.00;101452.25;5092778;28;20466;-83
2022/01/15 03:22:42;;;;;;;113.88;75.32;;;;;;;-2.21;100.00;101458.59;5093194;28;20116;-82
2022/01/15 03:25:10;;;;;;;317.73;146.30;;;;;;;-2.14;100.00;101456.41;5093310;28;20117;-80
2022/01/15 03:27:40;;;;;;;224.98;122.80;;;;;;;-2.05;100.00;101458.38;5093150;28;20048;-80
2022/01/15 03:30:10;;;;;;;326.02;125.57;;;;;;;-2.10;100.00;101453.47;5092114;28;20468;-80
2022/01/15 03:32:39;;;;;;;591.30;214.05;;;;;;;-2.25;100.00;101469.31;5093016;28;20047;-82
2022/01/15 03:35:06;;;;;;;169.32;92.45;;;;;;;-2.20;100.00;101477.66;5093013;28;20140;-80
2022/01/15 03:37:33;;;;;;;102.97;76.57;;;;;;;-2.14;100.00;101483.25;5079813;28;20048;-79
2022/01/15 03:40:00;;;;;;;228.90;109.88;;;;;;;-2.35;100.00;101495.13;5093309;28;20060;-80
2022/01/15 03:42:27;;;;;;;129.85;87.30;;;;;;;-2.24;100.00;101491.78;5093497;28;20499;-82
2022/01/15 03:44:55;;;;;;;111.78;84.00;;;;;;;-2.05;100.00;101502.63;5093070;28;20044;-83
2022/01/15 03:47:21;;;;;;;130.82;95.07;;;;;;;-2.00;100.00;101502.31;5093362;28;20055;-83
2022/01/15 03:49:48;;;;;;;150.52;95.70;;;;;;;-1.86;100.00;101499.59;5093068;28;20044;-79
2022/01/15 03:52:15;;;;;;;109.05;84.47;;;;;;;-1.92;100.00;101502.63;5093227;28;20055;-81
2022/01/15 03:54:42;;;;;;;90.15;67.18;;;;;;;-1.89;100.00;101518.84;5093242;28;20105;-82
2022/01/15 03:57:08;;;;;;;83.90;63.70;;;;;;;-1.84;100.00;101510.75;5092660;28;20044;-82
2022/01/15 03:59:35;;;;;;;107.10;75.90;;;;;;;-1.78;100.00;101519.91;5092800;28;20051;-82
2022/01/15 04:02:04;;;;;;;75.22;63.95;;;;;;;-1.72;100.00;101515.09;5092643;28;20464;-83
2022/01/15 04:04:31;;;;;;;84.72;64.53;;;;;;;-1.79;100.00;101529.47;5093153;28;20056;-80
2022/01/15 04:06:57;;;;;;;81.43;64.05;;;;;;;-1.76;100.00;101531.03;5092904;28;20101;-80
2022/01/15 04:09:24;;;;;;;155.18;108.28;;;;;;;-1.76;100.00;101531.03;5093399;28;20056;-82
2022/01/15 04:11:51;;;;;;;150.57;103.82;;;;;;;-1.69;100.00;101529.69;5092556;28;20117;-79
2022/01/15 04:14:18;;;;;;;86.00;72.97;;;;;;;-1.72;100.00;101527.28;5092348;28;20052;-80
2022/01/15 04:16:44;;;;;;;77.70;64.05;;;;;;;-1.74;100.00;101548.22;5093460;28;20040;-80
2022/01/15 04:19:13;;;;;;;132.20;92.70;;;;;;;-1.67;100.00;101538.22;5093073;28;20052;-80
2022/01/15 04:21:42;;;;;;;136.88;98.18;;;;;;;-1.59;100.00;101553.31;5096247;28;20048;-80
2022/01/15 04:24:09;;;;;;;133.63;91.85;;;;;;;-1.57;100.00;101551.41;5096761;28;20056;-80
2022/01/15 04:26:43;;;;;;;181.65;107.22;;;;;;;-1.62;100.00;101555.19;5097039;28;20477;-84
2022/01/15 04:29:15;;;;;;;211.63;116.50;;;;;;;-1.77;100.00;101558.84;5096644;28;20438;-79
2022/01/15 04:31:48;;;;;;;149.63;95.63;;;;;;;-1.77;100.00;101573.66;5096884;28;20510;-80
2022/01/15 04:34:28;;;;;;;117.10;86.85;;;;;;;-1.48;100.00;101571.66;5095590;28;20460;-84
2022/01/15 04:37:07;;;;;;;1189.10;348.05;;;;;;;-1.73;100.00;101572.50;5096772;28;20450;-80
2022/01/15 04:39:35;;;;;;;1805.28;528.60;;;;;;;-1.77;100.00;101577.09;5096214;28;20483;-80
2022/01/15 04:42:03;;;;;;;957.67;308.45;;;;;;;-1.71;100.00;101588.88;5096728;28;20438;-80
2022/01/15 04:44:44;;;;;;;601.47;196.30;;;;;;;-1.61;100.00;101595.09;5091756;28;20052;-80
2022/01/15 04:47:11;;;;;;;1175.15;422.50;;;;;;;-1.76;100.00;101591.75;5096547;28;20122;-81
2022/01/15 04:49:40;;;;;;;792.25;259.70;;;;;;;-1.87;100.00;101596.88;5094321;28;20108;-81
2022/01/15 04:52:07;;;;;;;824.08;284.15;;;;;;;-1.63;100.00;101604.81;5076408;28;20052;-81
2022/01/15 04:54:36;;;;;;;1463.32;499.17;;;;;;;-1.61;100.00;101613.34;5094811;28;20044;-80
2022/01/15 04:57:04;;;;;;;1455.38;463.08;;;;;;;-1.69;100.00;101611.28;5096382;28;20043;-83
2022/01/15 04:59:31;;;;;;;749.97;266.25;;;;;;;-1.97;100.00;101611.44;5095518;28;20044;-80
2022/01/15 05:02:00;;;;;;;731.28;248.65;;;;;;;-1.62;100.00;101615.09;5095972;28;20117;-84
2022/01/15 05:04:32;;;;;;;1357.28;454.42;;;;;;;-1.64;100.00;101618.75;5095733;28;20056;-84
2022/01/15 05:07:03;;;;;;;814.47;303.15;;;;;;;-1.60;100.00;101612.41;5095345;28;20056;-82
2022/01/15 05:09:31;;;;;;;916.08;335.85;;;;;;;-1.97;100.00;101609.66;5096230;28;20453;-80
2022/01/15 05:12:09;;;;;;;785.00;288.85;;;;;;;-1.92;100.00;101620.63;5096284;28;20446;-79
2022/01/15 05:14:38;;;;;;;806.92;307.38;;;;;;;-1.60;100.00;101615.03;5096033;28;20463;-83
2022/01/15 05:17:05;;;;;;;729.78;318.65;;;;;;;-1.64;100.00;101626.56;5095855;28;20123;-80
2022/01/15 05:19:33;;;;;;;586.30;236.27;;;;;;;-1.65;100.00;101612.72;5089512;28;20048;-79
2022/01/15 05:22:01;;;;;;;539.30;216.73;;;;;;;-1.90;100.00;101615.31;5093564;28;20055;-79
2022/01/15 05:24:31;;;;;;;459.70;185.85;;;;;;;-1.86;100.00;101609.78;5095221;28;20472;-80
2022/01/15 05:26:57;;;;;;;496.13;192.43;;;;;;;-1.85;100.00;101618.44;5095449;28;20196;-81
2022/01/15 05:29:24;;;;;;;513.85;201.57;;;;;;;-1.87;100.00;101613.34;5095697;28;20113;-81
2022/01/15 05:31:51;;;;;;;482.95;200.57;;;;;;;-1.88;100.00;101619.47;5095594;28;20469;-82
2022/01/15 05:34:18;;;;;;;495.98;212.45;;;;;;;-2.25;100.00;101613.28;5095323;28;20125;-83
2022/01/15 05:36:46;;;;;;;450.67;169.75;;;;;;;-2.26;100.00;101622.03;5095400;28;20048;-79
2022/01/15 05:39:13;;;;;;;476.08;192.77;;;;;;;-2.13;100.00;101635.06;5095299;28;20138;-81
2022/01/15 05:41:43;;;;;;;490.60;214.60;;;;;;;-2.12;100.00;101619.38;5095142;28;20047;-83
2022/01/15 05:44:09;;;;;;;514.17;220.20;;;;;;;-2.09;100.00;101639.13;5094925;28;20142;-82
2022/01/15 05:46:36;;;;;;;393.85;160.30;;;;;;;-2.16;100.00;101630.06;5095654;28;20408;-82
2022/01/15 05:49:04;;;;;;;428.75;155.90;;;;;;;-2.18;100.00;101643.19;5094523;28;20400;-80
2022/01/15 05:51:31;;;;;;;429.73;214.18;;;;;;;-1.95;100.00;101649.47;5090228;28;20521;-82
2022/01/15 05:53:58;;;;;;;413.48;180.90;;;;;;;-2.07;100.00;101648.50;5094318;28;20048;-82
2022/01/15 05:56:25;;;;;;;385.02;151.52;;;;;;;-2.34;100.00;101658.13;5094890;28;20079;-80
2022/01/15 05:58:53;;;;;;;362.55;149.60;;;;;;;-1.94;100.00;101664.16;5094992;28;20402;-82
2022/01/15 06:01:20;;;;;;;348.65;149.70;;;;;;;-1.89;100.00;101669.91;5094276;28;20044;-84
2022/01/15 06:03:47;;;;;;;194.90;101.10;;;;;;;-1.55;100.00;101672.84;5094497;28;20113;-80
2022/01/15 06:06:15;;;;;;;198.77;101.97;;;;;;;-1.64;100.00;101671.69;5094560;28;20048;-84
2022/01/15 06:08:42;;;;;;;249.40;117.35;;;;;;;-1.77;100.00;101677.84;5094600;28;20052;-83
2022/01/15 06:11:10;;;;;;;248.05;113.15;;;;;;;-1.70;100.00;101684.28;5094482;28;20073;-84
2022/01/15 06:13:36;;;;;;;226.13;108.97;;;;;;;-1.74;100.00;101690.66;5092984;28;20054;-83
2022/01/15 06:16:05;;;;;;;190.00;99.00;;;;;;;-1.82;100.00;101690.31;5094482;28;20051;-80
2022/01/15 06:18:32;;;;;;;206.95;105.60;;;;;;;-1.81;100.00;101692.00;5094050;28;20109;-83
2022/01/15 06:20:59;;;;;;;160.07;89.05;;;;;;;-1.75;100.00;101691.59;5093516;28;20052;-80
2022/01/15 06:23:25;;;;;;;136.13;77.22;;;;;;;-1.47;100.00;101694.00;5093940;28;20040;-80
2022/01/15 06:25:52;;;;;;;181.77;93.85;;;;;;;-1.49;100.00;101705.47;5084929;28;20546;-82
2022/01/15 06:28:19;;;;;;;160.77;91.00;;;;;;;-1.54;100.00;101705.78;5084177;28;20109;-79
2022/01/15 06:30:46;;;;;;;191.45;105.40;;;;;;;-1.38;100.00;101709.03;5086341;28;20113;-80
2022/01/15 06:33:14;;;;;;;187.75;99.72;;;;;;;-1.10;100.00;101714.13;5089739;28;20097;-80
2022/01/15 06:35:41;;;;;;;203.98;112.43;;;;;;;-1.33;100.00;101719.16;5085898;28;20051;-80
2022/01/15 06:38:08;;;;;;;196.70;108.47;;;;;;;-1.19;100.00;101715.59;5086162;28;20044;-83
2022/01/15 06:40:35;;;;;;;160.23;97.50;;;;;;;-0.99;100.00;101716.84;5083005;28;20052;-83
2022/01/15 06:43:02;;;;;;;154.95;89.57;;;;;;;-0.98;100.00;101716.72;5083675;28;20105;-80
2022/01/15 06:45:29;;;;;;;229.88;123.05;;;;;;;-0.84;100.00;101717.53;5083740;28;20475;-80
2022/01/15 06:47:56;;;;;;;199.43;104.10;;;;;;;-0.72;100.00;101722.72;5085981;28;20125;-82
2022/01/15 06:50:25;;;;;;;248.60;145.05;;;;;;;-0.37;100.00;101726.38;5082909;28;20040;-82
2022/01/15 06:52:52;;;;;;;134.40;88.22;;;;;;;0.01;100.00;101734.06;5083420;28;20047;-80
2022/01/15 06:55:19;;;;;;;199.13;118.80;;;;;;;0.14;100.00;101739.22;5080185;28;20055;-79
2022/01/15 06:57:47;;;;;;;190.05;119.97;;;;;;;0.97;100.00;101757.34;5084291;28;20074;-83
2022/01/15 07:00:15;;;;;;;164.15;103.97;;;;;;;1.57;100.00;101752.66;5084483;28;20108;-83
2022/01/15 07:02:42;;;;;;;133.30;94.35;;;;;;;1.74;100.00;101753.94;5085958;28;20048;-80
2022/01/15 07:05:10;;;;;;;86.82;71.70;;;;;;;2.24;100.00;101746.38;5082709;28;20060;-82
2022/01/15 07:07:44;;;;;;;73.53;65.90;;;;;;;2.03;100.00;101759.47;5083603;28;20055;-83
2022/01/15 07:10:11;;;;;;;71.72;64.90;;;;;;;2.83;100.00;101748.41;5082703;28;20044;-81
2022/01/15 07:12:38;;;;;;;65.70;59.35;;;;;;;2.35;100.00;101748.13;5086210;28;20044;-81
2022/01/15 07:15:05;;;;;;;68.28;61.42;;;;;;;2.71;100.00;101738.97;5084490;28;20059;-80
2022/01/15 07:17:32;;;;;;;63.63;57.67;;;;;;;3.23;100.00;101739.75;5083941;28;20044;-80
2022/01/15 07:19:59;;;;;;;68.32;62.00;;;;;;;4.17;100.00;101737.53;5080448;28;20365;-80
2022/01/15 07:22:26;;;;;;;67.07;60.50;;;;;;;4.89;100.00;101745.88;5082752;28;20083;-83
2022/01/15 07:24:54;;;;;;;67.85;61.50;;;;;;;5.39;100.00;101745.53;5084076;28;20483;-82
2022/01/15 07:27:21;;;;;;;67.05;60.65;;;;;;;4.76;100.00;101733.03;5088351;28;20047;-80
2022/01/15 07:29:47;;;;;;;69.10;62.35;;;;;;;5.86;100.00;101735.66;5083093;28;20124;-81
2022/01/15 07:32:14;;;;;;;64.15;58.47;;;;;;;6.19;100.00;101731.53;5086647;28;20588;-80
2022/01/15 07:34:41;;;;;;;67.32;60.92;;;;;;;5.94;100.00;101745.50;5083614;28;20052;-83
2022/01/15 07:37:08;;;;;;;63.97;57.63;;;;;;;5.92;100.00;101742.13;5086615;28;20040;-80
2022/01/15 07:39:35;;;;;;;66.03;59.63;;;;;;;6.78;100.00;101752.09;5081035;28;20550;-83
2022/01/15 07:42:04;;;;;;;66.93;60.50;;;;;;;7.06;100.00;101745.66;5082232;28;20064;-84
2022/01/15 07:44:31;;;;;;;79.18;71.00;;;;;;;7.59;100.00;101754.25;5083668;28;20048;-81
2022/01/15 07:46:57;;;;;;;58.35;53.45;;;;;;;6.56;100.00;101737.59;5082072;28;20132;-80
2022/01/15 07:49:25;;;;;;;61.20;55.85;;;;;;;7.58;100.00;101742.03;5082105;28;20060;-81
2022/01/15 07:51:52;;;;;;;63.58;57.35;;;;;;;7.36;100.00;101742.66;5085011;28;20044;-82
2022/01/15 07:54:19;;;;;;;68.82;62.13;;;;;;;6.89;100.00;101738.63;5083158;28;20051;-83
2022/01/15 07:56:45;;;;;;;62.33;56.78;;;;;;;7.92;100.00;101741.94;5088221;28;20495;-81
2022/01/15 07:59:13;;;;;;;58.33;53.53;;;;;;;6.56;100.00;101743.69;5087308;28;20488;-84
2022/01/15 08:01:40;;;;;;;92.57;82.80;;;;;;;8.05;100.00;101746.78;5087238;28;20110;-83
2022/01/15 08:04:07;;;;;;;75.07;68.35;;;;;;;5.20;100.00;101756.97;5089809;28;20112;-83
2022/01/15 08:06:34;;;;;;;86.75;78.18;;;;;;;6.19;100.00;101741.25;5087864;28;20517;-81
2022/01/15 08:09:00;;;;;;;84.75;77.20;;;;;;;5.95;100.00;101744.50;5084677;28;20048;-84
2022/01/15 08:11:27;;;;;;;83.63;76.20;;;;;;;5.77;100.00;101738.38;5086841;28;20048;-83
2022/01/15 08:13:54;;;;;;;83.35;76.13;;;;;;;6.61;100.00;101749.34;5087913;28;20106;-83
2022/01/15 08:16:22;;;;;;;87.15;78.00;;;;;;;6.21;100.00;101751.69;5086809;28;20064;-81
2022/01/15 08:18:49;;;;;;;84.93;77.47;;;;;;;6.39;100.00;101749.84;5087371;28;20048;-79
2022/01/15 08:21:17;;;;;;;79.95;73.05;;;;;;;6.44;100.00;101750.19;5089221;28;20052;-80
2022/01/15 08:23:43;;;;;;;82.18;75.28;;;;;;;6.70;100.00;101759.97;4999654;28;20121;-80
2022/01/15 08:26:10;;;;;;;86.40;78.93;;;;;;;6.91;100.00;101752.50;5043080;28;20111;-80
2022/01/15 08:28:38;;;;;;;84.60;77.30;;;;;;;6.32;100.00;101754.06;5048192;28;20057;-79
2022/01/15 08:31:05;;;;;;;76.15;69.72;;;;;;;6.25;100.00;101750.38;5046168;28;20072;-80
2022/01/15 08:33:33;;;;;;;82.75;75.63;;;;;;;5.82;100.00;101758.03;5045978;28;20468;-80
2022/01/15 08:36:00;;;;;;;80.93;74.32;;;;;;;5.59;100.00;101756.78;5051118;28;20452;-79
2022/01/15 08:38:27;;;;;;;83.07;76.32;;;;;;;7.15;100.00;101758.91;5047998;28;20057;-82
2022/01/15 08:40:54;;;;;;;78.18;71.70;;;;;;;5.79;100.00;101768.06;5049379;28;20122;-81
2022/01/15 08:43:21;;;;;;;75.03;69.05;;;;;;;6.36;100.00;101769.44;5048446;28;20037;-80
2022/01/15 08:45:48;;;;;;;72.82;66.93;;;;;;;5.39;100.00;101775.34;5040506;28;20057;-78
2022/01/15 08:48:19;;;;;;;71.05;65.63;;;;;;;6.36;100.00;101780.00;5043081;28;20057;-82
2022/01/15 08:50:47;;;;;;;70.82;65.22;;;;;;;7.87;100.00;101775.19;5044848;28;20432;-81
2022/01/15 08:53:16;;;;;;;71.80;65.95;;;;;;;6.87;100.00;101774.94;5040502;28;20054;-80
2022/01/15 08:55:44;;;;;;;77.93;70.90;;;;;;;5.62;100.00;101774.94;5042288;28;20057;-79
2022/01/15 08:58:10;;;;;;;80.63;73.70;;;;;;;6.45;100.00;101775.63;5044742;28;20049;-80
2022/01/15 09:00:37;;;;;;;86.95;79.70;;;;;;;6.74;100.00;101777.16;5043352;28;20465;-80
2022/01/15 09:03:06;;;;;;;89.20;81.15;;;;;;;6.02;100.00;101782.50;5038236;28;20456;-79
2022/01/15 09:05:34;;;;;;;94.93;86.15;;;;;;;8.17;100.00;101787.81;5042934;28;20045;-80
2022/01/15 09:08:02;;;;;;;93.80;85.53;;;;;;;7.42;100.00;101784.31;5050659;28;20378;-80
2022/01/15 09:10:30;;;;;;;91.70;83.65;;;;;;;8.53;100.00;101791.97;5046439;28;20111;-80
2022/01/15 09:12:58;;;;;;;86.55;79.15;;;;;;;7.92;100.00;101783.44;5052062;28;20067;-80
2022/01/15 09:15:25;;;;;;;91.45;83.20;;;;;;;6.71;100.00;101783.56;5040512;28;20375;-79
2022/01/15 09:17:52;;;;;;;89.50;81.60;;;;;;;8.23;100.00;101778.38;5038114;28;20114;-80
2022/01/15 09:20:19;;;;;;;81.47;74.57;;;;;;;7.86;100.00;101782.28;5040377;28;20453;-79
2022/01/15 09:22:46;;;;;;;81.88;74.47;;;;;;;7.25;100.00;101778.91;5042747;28;20444;-80
2022/01/15 09:25:14;;;;;;;85.78;78.28;;;;;;;10.59;100.00;101783.75;5041831;28;20095;-81
2022/01/15 09:30:25;;;;;;;88.32;80.82;;;;;;;10.46;100.00;101775.56;5038067;28;20102;-79
2022/01/15 09:32:54;;;;;;;88.30;80.57;;;;;;;6.67;100.00;101771.66;5044067;28;20052;-80
2022/01/15 09:35:22;;;;;;;89.30;81.55;;;;;;;8.60;100.00;101769.13;5042524;28;20076;-79
2022/01/15 09:37:50;;;;;;;87.15;79.68;;;;;;;10.00;100.00;101776.38;5042229;28;20045;-81
2022/01/15 09:40:20;;;;;;;85.93;78.30;;;;;;;9.12;100.00;101774.00;5038235;28;20078;-80
2022/01/15 09:42:49;;;;;;;84.28;76.78;;;;;;;6.99;100.00;101771.03;5045922;28;20045;-81
2022/01/15 09:45:17;;;;;;;87.95;80.18;;;;;;;8.34;100.00;101775.38;5044068;28;20049;-79
2022/01/15 09:47:44;;;;;;;85.53;77.88;;;;;;;8.14;100.00;101766.97;5050548;28;20512;-81
2022/01/15 09:50:13;;;;;;;83.43;76.18;;;;;;;10.89;100.00;101776.66;5041065;28;20111;-83
2022/01/15 09:52:40;;;;;;;71.53;66.10;;;;;;;9.39;100.00;101778.84;5044859;28;20111;-79
2022/01/15 09:55:09;;;;;;;81.75;74.95;;;;;;;8.29;100.00;101769.78;5041981;28;20052;-82
2022/01/15 09:57:38;;;;;;;82.25;75.28;;;;;;;11.57;100.00;101757.91;5047130;28;20059;-80
2022/01/15 10:00:08;;;;;;;80.80;74.30;;;;;;;11.22;100.00;101760.31;5039908;28;20452;-80
2022/01/15 10:02:36;;;;;;;83.15;76.30;;;;;;;9.87;100.00;101762.88;5037950;28;20053;-81
2022/01/15 10:05:02;;;;;;;81.72;75.07;;;;;;;8.94;100.00;101753.81;5044048;28;20067;-81
2022/01/15 10:07:29;;;;;;;85.00;77.68;;;;;;;9.59;100.00;101760.72;5045163;28;20463;-81
2022/01/15 10:09:56;;;;;;;79.57;73.25;;;;;;;7.03;100.00;101756.53;5045377;28;20465;-81
2022/01/15 10:12:29;;;;;;;88.47;80.20;;;;;;;10.06;100.00;101757.09;5046448;28;20110;-80
2022/01/15 10:15:01;;;;;;;83.68;76.82;;;;;;;7.80;100.00;101756.47;5046669;28;20123;-80
2022/01/15 10:17:29;;;;;;;;;;;;;;;8.87;100.00;101757.34;5044444;28;20045;-80
2022/01/15 10:19:58;;;;;;;83.80;76.88;;;;;;;8.15;100.00;101751.91;5048249;28;19990;-79
2022/01/15 10:22:27;;;;;;;84.30;77.07;;;;;;;8.11;100.00;101746.13;5046370;28;20045;-80
2022/01/15 10:24:56;;;;;;;83.68;76.25;;;;;;;9.20;100.00;101742.16;5041004;28;20444;-81
2022/01/15 10:27:29;;;;;;;83.18;75.97;;;;;;;9.18;100.00;101744.97;5049908;28;20068;-79
2022/01/15 10:30:01;;;;;;;82.15;75.32;;;;;;;8.93;100.00;101744.22;5048556;28;20124;-80
2022/01/15 10:32:30;;;;;;;84.28;77.15;;;;;;;10.67;100.00;101746.47;5043980;28;20111;-79
2022/01/15 10:34:57;;;;;;;85.70;78.47;;;;;;;8.68;100.00;101740.81;5047005;28;20052;-83
2022/01/15 10:37:26;;;;;;;84.55;77.38;;;;;;;8.99;100.00;101734.78;5045752;28;20187;-81
2022/01/15 10:39:59;;;;;;;84.00;76.93;;;;;;;8.64;100.00;101728.91;5045963;28;20469;-80
2022/01/15 10:42:27;;;;;;;85.53;78.32;;;;;;;10.19;100.00;101723.81;5045856;28;20057;-81
2022/01/15 10:44:55;;;;;;;86.38;78.93;;;;;;;9.93;100.00;101722.34;5046956;28;20052;-81
2022/01/15 10:47:26;;;;;;;86.10;78.88;;;;;;;9.35;100.00;101721.88;5044692;28;20045;-80
2022/01/15 10:49:53;;;;;;;61.38;56.70;;;;;;;10.99;100.00;101720.56;5045323;28;20076;-81
2022/01/15 10:52:22;;;;;;;61.05;56.47;;;;;;;9.85;100.00;101717.09;5042042;28;20049;-81
2022/01/15 10:54:58;;;;;;;62.22;57.78;;;;;;;9.69;100.00;101719.88;5045521;28;20059;-80
2022/01/15 10:57:29;;;;;;;59.95;55.72;;;;;;;10.47;100.00;101709.00;5045565;28;20122;-81
2022/01/15 11:00:06;;;;;;;59.53;54.97;;;;;;;9.84;100.00;101712.81;5048520;28;20041;-80
2022/01/15 11:02:35;;;;;;;56.83;52.47;;;;;;;10.84;100.00;101696.66;5046125;28;20072;-80
2022/01/15 11:05:01;;;;;;;56.45;52.20;;;;;;;12.89;100.00;101702.31;5049564;28;20118;-80
2022/01/15 11:07:28;;;;;;;61.72;57.35;;;;;;;9.11;100.00;101712.22;5049522;28;20045;-81
2022/01/15 11:09:55;;;;;;;60.15;55.95;;;;;;;9.38;100.00;101707.47;5046085;28;20472;-80
2022/01/15 11:12:27;;;;;;;60.67;56.15;;;;;;;11.58;100.00;101701.00;5046434;28;20052;-81
2022/01/15 11:14:55;;;;;;;56.45;52.28;;;;;;;10.93;100.00;101695.53;5046635;28;20069;-83
2022/01/15 11:17:21;;;;;;;74.32;68.93;;;;;;;10.36;100.00;101690.84;5053526;28;20072;-83
2022/01/15 11:19:52;;;;;;;80.03;74.20;;;;;;;10.08;100.00;101685.25;5052216;28;20041;-83
2022/01/15 11:22:22;;;;;;;82.82;76.43;;;;;;;11.95;100.00;101684.00;5047885;28;20113;-81
2022/01/15 11:24:51;;;;;;;81.18;74.78;;;;;;;10.64;100.00;101679.59;5048849;28;20037;-81